Time;durP1;ratioP1;P1;durP2;ratioP2;P2;SDS_P1;SDS_P2;PMS_P1;PMS_P2;Temp;Humidity;BMP_temperature;BMP_pressure;BME280_temperature;BME280_humidity;BME280_pressure;Samples;Min_cycle;Max_cycle;Signal;HPM_P1;HPM_P2
2024/01/07 00:00:32;;;;;;;10.35;5.82;;;;;;;9.02;67.19;98382.84;7792924;32;37453;-85
2024/01/07 00:04:49;;;;;;;9.38;5.12;;;;;;;9.30;66.35;98380.22;7792936;32;37162;-85
2024/01/07 00:09:05;;;;;;;8.63;5.30;;;;;;;9.24;66.57;98378.69;7792787;32;39398;-85
2024/01/07 00:13:21;;;;;;;10.40;5.93;;;;;;;9.18;66.68;98374.44;7792737;32;40780;-85
2024/01/07 00:17:37;;;;;;;9.48;6.10;;;;;;;9.30;66.43;98374.00;7792187;32;37790;-84
2024/01/07 00:21:54;;;;;;;12.13;6.65;;;;;;;9.30;66.33;98382.94;7792848;32;37003;-86
2024/01/07 00:26:10;;;;;;;10.88;6.50;;;;;;;9.34;66.13;98373.06;7792720;32;39966;-85
2024/01/07 00:30:26;;;;;;;11.68;6.65;;;;;;;9.28;66.38;98379.72;7792616;32;40574;-85
2024/01/07 00:34:43;;;;;;;10.70;6.32;;;;;;;9.27;66.33;98372.66;7792476;32;37927;-85
2024/01/07 00:38:59;;;;;;;10.52;6.80;;;;;;;9.15;66.61;98375.84;7793614;32;37781;-85
2024/01/07 00:43:15;;;;;;;11.85;6.85;;;;;;;9.09;66.76;98381.66;7794054;32;39170;-85
2024/01/07 00:47:32;;;;;;;11.38;6.87;;;;;;;9.21;66.57;98382.03;7792652;32;40946;-86
2024/01/07 00:51:48;;;;;;;13.10;7.53;;;;;;;9.19;66.60;98382.31;7792116;32;38581;-85
2024/01/07 00:56:05;;;;;;;9.82;6.72;;;;;;;9.37;66.02;98386.09;7792160;32;37551;-85
2024/01/07 01:00:22;;;;;;;13.30;7.18;;;;;;;9.18;66.65;98385.31;7792174;32;39302;-85
2024/01/07 01:04:41;;;;;;;10.77;6.75;;;;;;;9.38;66.03;98373.28;7792122;32;39820;-85
2024/01/07 01:08:58;;;;;;;10.75;6.85;;;;;;;9.26;66.35;98373.78;7791757;32;38617;-85
2024/01/07 01:13:14;;;;;;;10.80;6.15;;;;;;;9.33;66.10;98382.34;7791203;32;37097;-84
2024/01/07 01:17:30;;;;;;;11.50;6.95;;;;;;;9.38;66.00;98385.00;7791711;32;39281;-85
2024/01/07 01:21:46;;;;;;;11.60;7.22;;;;;;;8.95;67.85;98385.13;7790939;32;39847;-85
2024/01/07 01:26:03;;;;;;;13.55;6.95;;;;;;;9.20;66.71;98388.56;7791618;32;38095;-85
2024/01/07 01:30:19;;;;;;;12.40;6.82;;;;;;;9.24;66.58;98381.41;7791531;32;36931;-86
2024/01/07 01:34:36;;;;;;;12.95;7.78;;;;;;;9.14;67.03;98378.84;7791559;32;39163;-85
2024/01/07 01:38:52;;;;;;;128.20;12.43;;;;;;;8.82;68.07;98373.09;7791341;32;39644;-85
2024/01/07 01:43:09;;;;;;;183.23;13.20;;;;;;;8.77;68.56;98369.63;7791082;32;38404;-85
2024/01/07 01:47:25;;;;;;;14.87;7.40;;;;;;;8.97;67.84;98376.69;7791072;32;37289;-84
2024/01/07 01:51:42;;;;;;;14.13;8.02;;;;;;;9.00;67.80;98376.06;7790954;32;39231;-86
2024/01/07 01:56:00;;;;;;;11.90;7.45;;;;;;;9.20;67.15;98367.59;7789659;32;39642;-85
2024/01/07 02:00:17;;;;;;;14.60;7.10;;;;;;;9.15;67.32;98364.16;7790887;32;37697;-85
2024/01/07 02:04:33;;;;;;;12.37;7.25;;;;;;;9.33;66.66;98371.47;7790565;32;37971;-85
2024/01/07 02:08:50;;;;;;;11.50;6.78;;;;;;;9.41;66.44;98367.25;7790438;32;39269;-85
2024/01/07 02:13:06;;;;;;;10.82;6.80;;;;;;;9.43;66.27;98367.75;7790332;32;39595;-83
2024/01/07 02:17:23;;;;;;;10.38;6.50;;;;;;;9.62;67.21;98367.69;7790117;32;37589;-85
2024/01/07 02:21:39;;;;;;;13.02;7.47;;;;;;;9.33;67.19;98363.31;7789077;32;37174;-85
2024/01/07 02:25:55;;;;;;;15.25;7.70;;;;;;;9.42;66.58;98363.44;7790167;32;39967;-76
2024/01/07 02:30:12;;;;;;;12.27;6.85;;;;;;;9.28;67.71;98360.69;7790330;32;39992;-86
2024/01/07 02:34:28;;;;;;;12.88;6.72;;;;;;;9.47;67.84;98354.34;7793811;32;37508;-86
2024/01/07 02:38:44;;;;;;;12.35;7.78;;;;;;;9.33;67.56;98355.16;7794011;32;36746;-84
2024/01/07 02:43:01;;;;;;;12.35;7.65;;;;;;;9.47;67.01;98348.91;7795339;32;40235;-84
2024/01/07 02:47:17;;;;;;;15.75;8.18;;;;;;;9.38;66.71;98346.91;7793727;32;39907;-87
2024/01/07 02:51:33;;;;;;;13.07;7.65;;;;;;;9.51;66.09;98339.87;7793541;32;38748;-86
2024/01/07 02:55:50;;;;;;;13.82;8.00;;;;;;;9.43;66.49;98342.47;7793403;32;37043;-86
2024/01/07 03:00:07;;;;;;;16.17;8.65;;;;;;;9.44;65.95;98341.38;7793470;32;39397;-86
2024/01/07 03:04:24;;;;;;;12.80;7.97;;;;;;;9.45;65.97;98340.25;7793420;32;39901;-87
2024/01/07 03:08:40;;;;;;;13.35;8.55;;;;;;;9.28;66.44;98333.50;7793381;32;37937;-86
2024/01/07 03:12:56;;;;;;;15.02;7.80;;;;;;;9.33;66.22;98327.97;7793609;32;36675;-86
2024/01/07 03:17:14;;;;;;;15.75;8.48;;;;;;;9.33;66.33;98325.25;7793296;32;39750;-87
2024/01/07 03:21:31;;;;;;;13.55;8.00;;;;;;;9.17;66.80;98326.59;7793450;32;39429;-86
2024/01/07 03:25:47;;;;;;;14.68;7.25;;;;;;;9.33;66.40;98325.25;7793370;32;37769;-86
2024/01/07 03:30:04;;;;;;;13.18;7.70;;;;;;;9.29;66.48;98331.56;7793135;32;37735;-87
2024/01/07 03:34:20;;;;;;;11.25;7.30;;;;;;;9.31;66.47;98327.47;7793321;32;39175;-86
2024/01/07 03:38:37;;;;;;;11.55;6.97;;;;;;;9.38;66.28;98322.44;7793219;32;40950;-86
2024/01/07 03:42:53;;;;;;;11.05;6.50;;;;;;;9.42;66.11;98329.97;7792443;32;37772;-87
2024/01/07 03:47:10;;;;;;;13.10;7.07;;;;;;;9.32;66.41;98329.06;7793067;32;37071;-86
2024/01/07 03:51:26;;;;;;;12.43;6.65;;;;;;;9.38;66.31;98325.16;7792920;32;40450;-86
2024/01/07 03:55:42;;;;;;;14.05;6.30;;;;;;;9.30;66.56;98317.66;7792573;32;39653;-86
2024/01/07 03:59:59;;;;;;;10.20;6.15;;;;;;;9.34;66.40;98323.31;7792753;32;37778;-86
2024/01/07 04:04:15;;;;;;;10.10;5.90;;;;;;;9.45;66.21;98322.03;7792797;32;37823;-86
2024/01/07 04:08:31;;;;;;;11.38;5.87;;;;;;;9.61;65.51;98321.72;7792753;32;39288;-87
2024/01/07 04:12:48;;;;;;;8.68;5.55;;;;;;;9.60;65.44;98331.81;7792149;32;40950;-84
2024/01/07 04:17:05;;;;;;;8.30;5.07;;;;;;;9.47;65.70;98319.00;7792469;32;37796;-87
2024/01/07 04:21:21;;;;;;;7.90;5.18;;;;;;;9.66;65.11;98319.75;7792730;32;37051;-86
2024/01/07 04:25:38;;;;;;;10.23;4.87;;;;;;;9.38;66.08;98325.16;7792654;32;39289;-86
2024/01/07 04:29:54;;;;;;;7.55;4.68;;;;;;;9.45;65.82;98329.38;7792397;32;40272;-86
2024/01/07 04:34:10;;;;;;;7.45;4.40;;;;;;;9.62;65.58;98320.62;7792445;32;37530;-86
2024/01/07 04:38:30;;;;;;;7.28;4.45;;;;;;;9.59;65.43;98313.91;7792631;32;37020;-86
2024/01/07 04:42:46;;;;;;;6.40;4.15;;;;;;;9.63;65.41;98325.78;7792513;32;40124;-87
2024/01/07 04:47:02;;;;;;;7.30;4.35;;;;;;;9.37;66.06;98328.97;7792346;32;39688;-86
2024/01/07 04:51:18;;;;;;;6.10;4.15;;;;;;;9.47;66.02;98327.97;7792121;32;37478;-86
2024/01/07 04:55:36;;;;;;;7.53;4.70;;;;;;;9.46;65.98;98320.12;7790892;32;37119;-86
2024/01/07 04:59:52;;;;;;;6.57;4.40;;;;;;;9.46;65.91;98328.28;7791234;32;39374;-85
2024/01/07 05:04:09;;;;;;;8.27;4.55;;;;;;;9.49;65.95;98319.53;7791017;32;40044;-86
2024/01/07 05:08:26;;;;;;;7.20;4.25;;;;;;;9.49;65.79;98323.03;7792040;32;38572;-86
2024/01/07 05:12:43;;;;;;;6.25;4.00;;;;;;;9.62;65.34;98324.16;7791625;32;37501;-86
2024/01/07 05:16:59;;;;;;;5.82;4.12;;;;;;;9.63;65.51;98325.78;7791715;32;39303;-84
2024/01/07 05:21:18;;;;;;;6.22;4.12;;;;;;;9.61;65.48;98322.56;7791758;32;39923;-86
2024/01/07 05:25:34;;;;;;;9.25;4.68;;;;;;;9.62;65.47;98324.16;7791830;32;37566;-85
2024/01/07 05:29:50;;;;;;;7.05;4.70;;;;;;;9.70;65.42;98319.94;7791743;32;36635;-86
2024/01/07 05:34:07;;;;;;;7.30;4.30;;;;;;;9.63;65.40;98314.09;7791502;32;39366;-86
2024/01/07 05:38:24;;;;;;;6.43;4.03;;;;;;;9.68;65.38;98317.50;7791296;32;39997;-86
2024/01/07 05:42:40;;;;;;;8.32;4.32;;;;;;;9.47;66.00;98321.72;7790706;32;37913;-86
2024/01/07 05:46:56;;;;;;;7.18;4.62;;;;;;;9.59;65.84;98319.34;7791187;32;37563;-86
2024/01/07 05:51:13;;;;;;;4.95;3.78;;;;;;;9.61;65.96;98321.72;7791043;32;39698;-85
2024/01/07 05:55:29;;;;;;;7.12;4.32;;;;;;;9.57;66.04;98321.53;7790652;32;40769;-88
2024/01/07 05:59:45;;;;;;;12.20;7.78;;;;;;;9.44;66.41;98330.50;7790784;32;37813;-87
2024/01/07 06:04:02;;;;;;;15.38;7.72;;;;;;;9.46;66.34;98333.72;7790555;32;37546;-86
2024/01/07 06:08:19;;;;;;;14.02;7.57;;;;;;;9.52;66.05;98335.22;7793633;32;40069;-87
2024/01/07 06:12:35;;;;;;;15.27;8.50;;;;;;;9.60;65.77;98339.97;7792342;32;40696;-86
2024/01/07 06:16:52;;;;;;;11.60;6.65;;;;;;;9.63;65.55;98331.22;7766677;32;37807;-85
2024/01/07 06:21:08;;;;;;;12.13;6.82;;;;;;;9.61;65.64;98338.06;7766983;32;37588;-87
2024/01/07 06:25:26;;;;;;;12.18;7.20;;;;;;;9.45;66.12;98334.81;7785559;32;39887;-86
2024/01/07 06:29:42;;;;;;;11.98;6.90;;;;;;;9.40;66.44;98339.25;7793751;32;40764;-86
2024/01/07 06:33:58;;;;;;;12.52;6.78;;;;;;;9.42;66.38;98336.22;7793650;32;37701;-86
2024/01/07 06:38:15;;;;;;;12.37;6.40;;;;;;;9.51;66.08;98339.87;7793843;32;37171;-86
2024/01/07 06:42:31;;;;;;;10.27;6.53;;;;;;;9.51;66.08;98347.22;7793696;32;40037;-87
2024/01/07 06:46:48;;;;;;;15.88;7.20;;;;;;;9.62;65.67;98350.56;7765464;32;40901;-86
2024/01/07 06:51:04;;;;;;;13.73;7.37;;;;;;;9.53;65.75;98353.97;7766387;32;38736;-86
2024/01/07 06:55:21;;;;;;;11.70;6.85;;;;;;;9.53;65.80;98342.28;7784499;32;37490;-86
2024/01/07 06:59:37;;;;;;;12.70;6.62;;;;;;;9.30;66.73;98354.94;7793509;32;40072;-86
2024/01/07 07:03:54;;;;;;;14.05;7.05;;;;;;;9.24;66.92;98354.22;7792475;32;39958;-85
2024/01/07 07:08:10;;;;;;;11.88;6.85;;;;;;;9.42;66.53;98358.00;7792620;32;38594;-86
2024/01/07 07:12:27;;;;;;;9.88;6.10;;;;;;;9.51;66.19;98366.28;7793385;32;37072;-86
2024/01/07 07:16:43;;;;;;;10.50;6.45;;;;;;;9.51;66.26;98366.28;7792629;32;39183;-87
2024/01/07 07:20:59;;;;;;;9.52;5.75;;;;;;;9.35;66.84;98371.97;7793291;32;40003;-86
2024/01/07 07:25:16;;;;;;;12.07;6.45;;;;;;;9.30;67.13;98372.06;7793256;32;37897;-86
2024/01/07 07:29:32;;;;;;;12.63;6.10;;;;;;;9.44;66.85;98372.09;7793099;32;37084;-85
2024/01/07 07:33:48;;;;;;;12.35;6.82;;;;;;;9.48;66.77;98373.09;7793202;32;39913;-85
2024/01/07 07:38:05;;;;;;;26.83;7.30;;;;;;;9.51;67.21;98372.50;7793110;32;40929;-85
2024/01/07 07:42:21;;;;;;;13.05;7.43;;;;;;;9.56;66.90;98379.78;7792958;32;38022;-76
2024/01/07 07:46:37;;;;;;;13.60;6.97;;;;;;;9.53;67.87;98374.94;7793069;32;37730;-88
2024/01/07 07:50:54;;;;;;;39.53;8.40;;;;;;;9.58;66.98;98372.13;7793087;32;39350;-86
2024/01/07 07:55:11;;;;;;;23.60;8.57;;;;;;;9.63;66.65;98382.91;7792921;32;40551;-86
2024/01/07 07:59:27;;;;;;;22.80;11.07;;;;;;;9.61;66.61;98385.13;7793046;32;38037;-85
2024/01/07 08:03:43;;;;;;;15.38;8.85;;;;;;;9.57;67.02;98389.53;7792875;32;37216;-87
2024/01/07 08:08:00;;;;;;;25.30;8.90;;;;;;;9.59;66.59;98393.59;7792570;32;39348;-87
2024/01/07 08:12:16;;;;;;;49.17;10.23;;;;;;;9.43;67.24;98392.22;7792184;32;40827;-86
2024/01/07 08:16:32;;;;;;;15.30;8.95;;;;;;;9.50;66.99;98394.56;7792499;32;37629;-87
2024/01/07 08:20:49;;;;;;;50.33;12.18;;;;;;;9.47;67.18;98397.88;7792578;32;37162;-86
2024/01/07 08:25:06;;;;;;;69.45;11.98;;;;;;;9.59;66.96;98399.03;7792730;32;39301;-86
2024/01/07 08:29:22;;;;;;;117.82;14.65;;;;;;;9.48;67.49;98403.03;7795073;32;39622;-86
2024/01/07 08:33:39;;;;;;;104.47;15.63;;;;;;;9.70;66.70;98407.03;7804089;32;37972;-84
2024/01/07 08:37:55;;;;;;;99.85;13.57;;;;;;;9.25;68.15;98412.94;7803903;32;37943;-88
2024/01/07 08:42:11;;;;;;;131.75;14.32;;;;;;;8.87;69.97;98415.69;7805322;32;40099;-87
2024/01/07 08:46:28;;;;;;;260.65;18.80;;;;;;;9.17;68.44;98421.75;7788280;32;39992;-87
2024/01/07 08:50:44;;;;;;;42.60;10.45;;;;;;;9.23;68.46;98417.88;7796858;32;38004;-86
2024/01/07 08:55:01;;;;;;;29.87;9.73;;;;;;;9.22;68.50;98424.41;7803954;32;37727;-87
2024/01/07 08:59:17;;;;;;;52.97;10.48;;;;;;;9.53;67.55;98423.91;7804077;32;39211;-88
2024/01/07 09:03:33;;;;;;;20.12;10.00;;;;;;;9.51;67.66;98439.72;7803462;32;40830;-86
2024/01/07 09:07:50;;;;;;;33.72;11.68;;;;;;;9.57;67.31;98430.34;7806704;32;37977;-86
2024/01/07 09:12:07;;;;;;;29.08;11.35;;;;;;;9.48;67.89;98443.84;7818419;32;36806;-85
2024/01/07 09:16:23;;;;;;;21.20;10.98;;;;;;;9.51;67.74;98442.44;7807492;32;40023;-84
2024/01/07 09:20:39;;;;;;;94.13;12.82;;;;;;;9.39;68.19;98440.97;7790817;32;40792;-87
2024/01/07 09:24:56;;;;;;;22.62;10.55;;;;;;;9.44;68.06;98444.75;7790902;32;37975;-86
2024/01/07 09:29:12;;;;;;;55.83;12.20;;;;;;;9.35;68.36;98447.34;7790387;32;37378;-85
2024/01/07 09:33:29;;;;;;;13.48;7.90;;;;;;;9.36;68.51;98438.84;7790639;32;39076;-86
2024/01/07 09:37:45;;;;;;;18.52;9.30;;;;;;;9.50;67.80;98443.53;7790388;32;39924;-86
2024/01/07 09:42:02;;;;;;;14.07;8.93;;;;;;;9.60;67.36;98440.66;7789609;32;38692;-86
2024/01/07 09:46:19;;;;;;;15.50;8.35;;;;;;;9.49;67.77;98433.78;7790131;32;37553;-85
2024/01/07 09:50:35;;;;;;;16.75;8.55;;;;;;;9.73;67.19;98434.44;7790282;32;39927;-87
2024/01/07 09:55:00;;;;;;;17.52;7.35;;;;;;;9.76;67.21;98435.75;7789158;32;40004;-87
2024/01/07 09:59:17;;;;;;;16.00;7.87;;;;;;;9.83;67.09;98432.63;7790064;32;37861;-86
2024/01/07 10:03:34;;;;;;;12.07;6.87;;;;;;;9.59;67.54;98428.16;7789257;32;37222;-87
2024/01/07 10:07:53;;;;;;;16.90;7.55;;;;;;;9.62;67.40;98433.00;7790330;32;38952;-87
2024/01/07 10:12:12;;;;;;;8.52;5.05;;;;;;;9.80;67.04;98427.81;7789493;32;39957;-85
2024/01/07 10:16:28;;;;;;;9.15;5.53;;;;;;;9.94;66.47;98423.97;7788843;32;37584;-84
2024/01/07 10:20:45;;;;;;;11.95;6.62;;;;;;;9.89;66.63;98421.34;7789616;32;37626;-84
2024/01/07 10:25:01;;;;;;;17.02;8.00;;;;;;;9.82;66.94;98425.59;7789834;32;39236;-84
2024/01/07 10:29:17;;;;;;;9.95;6.22;;;;;;;9.98;66.51;98423.37;7789429;32;40775;-84
2024/01/07 10:33:36;;;;;;;9.43;5.78;;;;;;;9.73;67.22;98426.28;7789770;32;38767;-84
2024/01/07 10:37:53;;;;;;;18.55;6.68;;;;;;;9.95;66.72;98419.34;7788374;32;37267;-84
2024/01/07 10:42:11;;;;;;;13.55;6.87;;;;;;;9.93;66.67;98414.22;7788433;32;39171;-84
2024/01/07 10:46:29;;;;;;;16.35;8.23;;;;;;;9.61;67.54;98415.06;7789452;32;40130;-82
2024/01/07 10:50:48;;;;;;;64.70;13.32;;;;;;;9.64;67.58;98417.19;7788363;32;36881;-82
2024/01/07 10:55:09;;;;;;;50.45;14.98;;;;;;;9.53;67.92;98418.47;7792486;32;38044;-80
2024/01/07 10:59:28;;;;;;;27.90;9.95;;;;;;;9.66;68.64;98420.41;7792421;32;39278;-82
2024/01/07 11:04:05;;;;;;;16.75;9.23;;;;;;;9.13;69.29;98423.47;7792363;32;40087;-85
2024/01/07 11:08:40;;;;;;;10.68;7.03;;;;;;;9.39;68.54;98419.22;7792099;32;37879;-84
2024/01/07 11:12:59;;;;;;;10.00;5.47;;;;;;;9.32;68.16;98418.81;7792899;32;36642;-83
2024/01/07 11:17:35;;;;;;;7.97;4.00;;;;;;;9.33;68.01;98412.28;7795329;32;39980;-85
2024/01/07 11:21:52;;;;;;;7.62;4.50;;;;;;;9.39;67.51;98412.97;7792518;32;39993;-84
2024/01/07 11:26:11;;;;;;;5.87;3.85;;;;;;;9.29;67.57;98413.94;7798336;32;38456;-84
2024/01/07 11:30:28;;;;;;;6.20;3.83;;;;;;;9.27;67.20;98415.37;7793063;32;36893;-85
2024/01/07 11:34:47;;;;;;;8.88;3.80;;;;;;;9.17;67.05;98405.44;7792805;32;39294;-84
2024/01/07 11:39:06;;;;;;;5.87;4.05;;;;;;;9.09;66.98;98412.38;7792291;32;40888;-85
2024/01/07 11:43:22;;;;;;;6.43;3.72;;;;;;;9.14;66.57;98411.47;7792382;32;37929;-84
2024/01/07 11:47:38;;;;;;;8.65;4.47;;;;;;;9.28;66.18;98412.34;7792984;32;36615;-84
2024/01/07 11:51:55;;;;;;;6.68;4.40;;;;;;;9.16;66.20;98414.72;7791805;32;40243;-85
2024/01/07 11:56:12;;;;;;;11.12;5.12;;;;;;;9.19;66.07;98414.94;7805948;32;40873;-85
2024/01/07 12:00:30;;;;;;;8.82;4.07;;;;;;;9.16;66.04;98417.44;7804552;32;38589;-83
2024/01/07 12:04:47;;;;;;;6.47;3.85;;;;;;;9.16;65.27;98425.59;7791821;32;36104;-84
2024/01/07 12:09:03;;;;;;;6.65;3.95;;;;;;;9.25;64.89;98410.22;7787891;32;39990;-85
2024/01/07 12:13:19;;;;;;;4.93;3.58;;;;;;;8.83;65.02;98411.97;7791968;32;39950;-85
2024/01/07 12:17:38;;;;;;;5.60;3.60;;;;;;;8.64;65.08;98423.63;7792085;32;37942;-84
2024/01/07 12:22:05;;;;;;;9.60;3.87;;;;;;;7.80;67.54;98428.66;7792342;32;36257;-82
2024/01/07 12:26:26;;;;;;;5.40;3.58;;;;;;;8.02;66.97;98426.25;7792835;32;40157;-85
2024/01/07 12:30:42;;;;;;;7.35;4.18;;;;;;;7.50;67.80;98427.81;7793178;32;39111;-84
2024/01/07 12:34:59;;;;;;;4.80;3.58;;;;;;;7.18;68.29;98436.50;7791293;32;37626;-85
2024/01/07 12:39:16;;;;;;;9.00;3.95;;;;;;;7.30;67.14;98442.38;7792491;32;38201;-84
2024/01/07 12:43:32;;;;;;;6.53;4.20;;;;;;;7.20;68.14;98442.44;7792150;32;39297;-84
2024/01/07 12:47:49;;;;;;;5.97;4.15;;;;;;;7.01;67.92;98447.72;7792426;32;40726;-84
2024/01/07 12:52:05;;;;;;;8.43;5.22;;;;;;;6.73;69.34;98450.88;7792162;32;38508;-83
2024/01/07 12:56:22;;;;;;;9.40;5.00;;;;;;;6.67;69.37;98454.69;7792055;32;37808;-83
2024/01/07 13:00:40;;;;;;;7.72;5.10;;;;;;;6.68;69.78;98463.63;7792458;32;40185;-84
2024/01/07 13:04:56;;;;;;;13.10;4.78;;;;;;;6.25;70.85;98466.78;7792129;32;39828;-83
2024/01/07 13:09:13;;;;;;;8.77;4.55;;;;;;;6.29;69.62;98473.25;7791958;32;37924;-83
2024/01/07 13:13:30;;;;;;;7.82;5.22;;;;;;;5.91;71.08;98483.59;7791806;32;37009;-83
2024/01/07 13:17:46;;;;;;;7.72;4.90;;;;;;;6.08;70.25;98488.72;7790442;32;40034;-83
2024/01/07 13:22:03;;;;;;;12.18;6.68;;;;;;;5.37;72.09;98500.37;7792230;32;40623;-83
2024/01/07 13:26:20;;;;;;;23.05;11.07;;;;;;;5.31;71.44;98506.84;7791685;32;37849;-82
2024/01/07 13:30:37;;;;;;;32.75;15.93;;;;;;;5.08;71.37;98500.88;7791872;32;36791;-83
2024/01/07 13:34:53;;;;;;;20.40;12.43;;;;;;;4.59;73.28;98514.75;7791548;32;39180;-82
2024/01/07 13:39:10;;;;;;;8.57;4.75;;;;;;;4.78;70.99;98515.94;7791186;32;40806;-80
2024/01/07 13:43:29;;;;;;;13.62;6.30;;;;;;;4.91;69.89;98519.22;7782166;32;37590;-83
2024/01/07 13:47:46;;;;;;;15.82;11.82;;;;;;;4.93;70.23;98527.84;7790378;32;37029;-82
2024/01/07 13:52:03;;;;;;;8.82;5.60;;;;;;;4.71;69.42;98526.16;7790839;32;40773;-84
2024/01/07 13:56:20;;;;;;;9.00;4.57;;;;;;;4.70;69.69;98530.75;7791036;32;40077;-83
2024/01/07 14:00:36;;;;;;;9.60;7.25;;;;;;;4.48;69.46;98544.44;7790938;32;38633;-81
2024/01/07 14:04:53;;;;;;;8.90;6.32;;;;;;;4.39;70.24;98551.38;7790795;32;36958;-82
2024/01/07 14:09:11;;;;;;;10.70;6.97;;;;;;;3.93;71.89;98562.69;7800638;32;38581;-82
2024/01/07 14:13:28;;;;;;;11.77;7.30;;;;;;;3.75;72.25;98558.50;7801263;32;40041;-81
2024/01/07 14:17:53;;;;;;;10.98;6.43;;;;;;;3.66;73.97;98561.94;7803072;32;37647;-82
2024/01/07 14:22:12;;;;;;;14.73;7.15;;;;;;;4.33;70.72;98563.22;7801235;32;37202;-82
2024/01/07 14:26:29;;;;;;;9.95;6.55;;;;;;;3.67;71.84;98567.03;7800557;32;40034;-83
2024/01/07 14:30:45;;;;;;;9.32;5.97;;;;;;;3.90;71.78;98567.78;7807447;32;40761;-83
2024/01/07 14:35:03;;;;;;;10.18;6.32;;;;;;;4.26;69.82;98568.84;7805622;32;38552;-84
2024/01/07 14:39:20;;;;;;;10.23;6.37;;;;;;;3.95;70.43;98578.63;7806546;32;37851;-83
2024/01/07 14:43:36;;;;;;;12.15;6.28;;;;;;;4.22;69.59;98570.44;7795276;32;40038;-83
2024/01/07 14:47:53;;;;;;;11.38;6.50;;;;;;;4.03;69.65;98578.13;7793799;32;40608;-83
2024/01/07 14:52:09;;;;;;;10.32;6.37;;;;;;;4.32;68.72;98586.69;7793564;32;38615;-73
2024/01/07 14:56:26;;;;;;;10.95;5.93;;;;;;;4.62;73.56;98571.75;7794431;32;37125;-82
2024/01/07 15:00:42;;;;;;;9.98;6.00;;;;;;;3.98;70.21;98588.88;7794821;32;39182;-85
2024/01/07 15:04:59;;;;;;;11.02;6.07;;;;;;;4.14;69.34;98590.63;7793773;32;40063;-86
2024/01/07 15:09:15;;;;;;;9.63;5.80;;;;;;;4.07;68.14;98597.28;7801198;32;37787;-86
2024/01/07 15:13:34;;;;;;;8.75;5.95;;;;;;;3.94;69.01;98598.56;7803582;32;37738;-84
2024/01/07 15:17:53;;;;;;;8.80;5.75;;;;;;;3.49;70.48;98605.97;7807264;32;37620;-84
2024/01/07 15:22:12;;;;;;;8.90;6.05;;;;;;;3.60;69.94;98608.75;7808336;32;41280;-85
2024/01/07 15:26:30;;;;;;;9.52;5.82;;;;;;;3.59;69.72;98618.75;7809199;32;37809;-84
2024/01/07 15:30:47;;;;;;;10.40;6.60;;;;;;;3.94;68.87;98623.63;7793694;32;37531;-85
2024/01/07 15:35:08;;;;;;;13.05;7.82;;;;;;;3.60;69.81;98623.03;7794488;32;39987;-84
2024/01/07 15:39:25;;;;;;;15.23;7.87;;;;;;;3.99;68.10;98628.25;7806121;32;40118;-85
2024/01/07 15:43:41;;;;;;;13.95;7.25;;;;;;;4.20;67.27;98633.81;7821057;32;38848;-85
2024/01/07 15:47:59;;;;;;;15.32;8.10;;;;;;;3.35;69.69;98635.19;7820537;32;36946;-83
2024/01/07 15:52:16;;;;;;;13.57;7.65;;;;;;;2.81;70.82;98641.28;7797631;32;39103;-82
2024/01/07 15:56:33;;;;;;;16.20;8.65;;;;;;;3.56;69.18;98646.19;7791748;32;39685;-82
2024/01/07 16:00:49;;;;;;;20.05;8.82;;;;;;;3.23;69.15;98642.59;7792794;32;38630;-82
2024/01/07 16:05:06;;;;;;;15.82;8.15;;;;;;;3.90;67.21;98646.78;7792796;32;37022;-84
2024/01/07 16:09:22;;;;;;;12.82;7.32;;;;;;;3.29;68.34;98649.66;7784214;32;38943;-86
2024/01/07 16:13:39;;;;;;;12.55;7.32;;;;;;;3.18;68.29;98656.00;7782382;32;39984;-85
2024/01/07 16:17:55;;;;;;;16.40;8.18;;;;;;;3.31;68.63;98655.62;7792002;32;37895;-84
2024/01/07 16:22:13;;;;;;;17.92;9.85;;;;;;;3.38;68.30;98656.25;7782456;32;37092;-86
2024/01/07 16:26:29;;;;;;;13.80;7.40;;;;;;;3.50;66.71;98663.38;7770412;32;37911;-87
2024/01/07 16:30:46;;;;;;;14.30;7.12;;;;;;;3.59;66.84;98672.66;7787402;32;40009;-86
2024/01/07 16:35:02;;;;;;;10.30;6.35;;;;;;;3.06;67.93;98666.91;7780947;32;37492;-86
2024/01/07 16:39:19;;;;;;;15.35;7.18;;;;;;;3.18;67.55;98678.38;7791272;32;37597;-86
2024/01/07 16:43:37;;;;;;;10.75;6.45;;;;;;;2.49;69.51;98684.16;7792061;32;40069;-85
2024/01/07 16:47:56;;;;;;;10.70;6.37;;;;;;;2.69;68.03;98685.50;7791746;32;39626;-84
2024/01/07 16:52:17;;;;;;;13.60;8.07;;;;;;;2.76;68.22;98686.16;7791585;32;37465;-86
2024/01/07 16:56:36;;;;;;;12.90;7.68;;;;;;;2.36;68.93;98692.56;7791829;32;37086;-86
2024/01/07 17:00:56;;;;;;;10.40;6.62;;;;;;;2.93;67.08;98700.41;7791334;32;40259;-84
2024/01/07 17:05:15;;;;;;;10.45;6.95;;;;;;;2.77;67.11;98706.63;7791465;32;39169;-84
2024/01/07 17:09:35;;;;;;;13.02;7.07;;;;;;;2.21;68.54;98711.97;7781281;32;36937;-86
2024/01/07 17:14:00;;;;;;;12.99;7.16;;;;;;;3.12;65.22;98710.88;7764248;32;2704564;-84
2024/01/07 17:18:18;;;;;;;11.43;6.97;;;;;;;2.83;65.71;98716.41;7773296;32;37102;-83
2024/01/07 17:22:35;;;;;;;10.70;6.90;;;;;;;2.27;67.12;98726.31;7790661;32;39277;-85
2024/01/07 17:26:52;;;;;;;14.73;7.55;;;;;;;2.24;67.00;98733.81;7775417;32;40791;-84
2024/01/07 17:31:08;;;;;;;11.23;7.35;;;;;;;2.84;64.80;98734.19;7773228;32;38570;-85
2024/01/07 17:35:26;;;;;;;13.27;7.32;;;;;;;2.66;65.36;98734.44;7786165;32;36925;-85
2024/01/07 17:39:45;;;;;;;13.52;6.60;;;;;;;3.30;63.67;98740.22;7781962;32;39837;-86
2024/01/07 17:44:03;;;;;;;10.73;6.87;;;;;;;2.50;65.21;98746.84;7768848;32;39984;-85
2024/01/07 17:48:20;;;;;;;11.10;7.53;;;;;;;2.68;63.97;98754.69;7781031;32;38730;-86
2024/01/07 17:52:37;;;;;;;14.07;6.68;;;;;;;2.85;63.75;98756.56;7775158;32;36864;-85
2024/01/07 17:56:53;;;;;;;10.98;6.57;;;;;;;2.51;64.19;98780.78;7772597;32;39431;-84
2024/01/07 18:01:10;;;;;;;11.40;7.55;;;;;;;2.53;63.08;98774.06;7777048;32;40928;-86
2024/01/07 18:05:27;;;;;;;13.48;7.43;;;;;;;2.04;64.57;98782.66;7767265;32;38001;-85
2024/01/07 18:09:44;;;;;;;12.07;7.43;;;;;;;2.68;63.74;98780.78;7768983;32;37944;-86
2024/01/07 18:14:00;;;;;;;13.07;7.40;;;;;;;2.66;63.93;98788.25;7766963;32;39352;-84
2024/01/07 18:18:16;;;;;;;12.07;7.10;;;;;;;2.13;64.45;98796.53;7775483;32;41334;-86
2024/01/07 18:22:33;;;;;;;13.43;7.85;;;;;;;2.67;63.41;98790.72;7776122;32;38642;-87
2024/01/07 18:26:55;;;;;;;12.45;7.12;;;;;;;2.79;62.61;98796.00;7766718;32;37102;-86
2024/01/07 18:31:12;;;;;;;13.32;7.68;;;;;;;2.71;63.01;98791.88;7769720;32;40330;-83
2024/01/07 18:35:29;;;;;;;14.38;7.90;;;;;;;2.75;62.29;98809.16;7774484;32;39946;-86
2024/01/07 18:39:45;;;;;;;10.18;6.82;;;;;;;2.59;62.46;98810.78;7768756;32;38565;-86
2024/01/07 18:44:02;;;;;;;10.43;6.85;;;;;;;2.72;61.72;98809.63;7767763;32;37090;-85
2024/01/07 18:48:18;;;;;;;11.30;7.25;;;;;;;2.88;61.36;98818.78;7767008;32;39499;-85
2024/01/07 18:52:35;;;;;;;12.43;7.37;;;;;;;2.95;61.71;98822.13;7769599;32;39739;-87
2024/01/07 18:56:51;;;;;;;12.77;6.70;;;;;;;2.73;62.20;98832.00;7793569;32;37854;-86
2024/01/07 19:01:07;;;;;;;10.55;7.10;;;;;;;3.08;59.98;98833.63;7797366;32;37975;-86
2024/01/07 19:05:25;;;;;;;10.73;6.97;;;;;;;2.84;60.54;98838.38;7793175;32;40139;-85
2024/01/07 19:09:41;;;;;;;12.13;7.10;;;;;;;2.68;61.06;98840.78;7793511;32;39889;-85
2024/01/07 19:13:58;;;;;;;13.20;6.80;;;;;;;2.49;60.87;98848.28;7792462;32;37877;-84
2024/01/07 19:18:14;;;;;;;12.45;7.53;;;;;;;2.35;61.33;98855.03;7793275;32;37139;-85
2024/01/07 19:22:31;;;;;;;11.30;7.22;;;;;;;2.68;60.87;98861.53;7793425;32;39340;-86
2024/01/07 19:26:47;;;;;;;12.75;7.25;;;;;;;2.65;60.89;98862.81;7793368;32;40708;-84
2024/01/07 19:31:05;;;;;;;11.12;6.95;;;;;;;1.53;63.24;98882.91;7793078;32;37902;-84
2024/01/07 19:35:22;;;;;;;12.95;7.12;;;;;;;2.17;61.38;98872.16;7793044;32;37149;-84
2024/01/07 19:39:39;;;;;;;12.45;7.65;;;;;;;2.03;61.56;98871.59;7793152;32;39274;-85
2024/01/07 19:43:55;;;;;;;12.30;6.93;;;;;;;2.45;60.73;98874.03;7792466;32;40739;-85
2024/01/07 19:48:12;;;;;;;11.82;7.28;;;;;;;2.27;60.41;98880.41;7792972;32;38701;-84
2024/01/07 19:52:28;;;;;;;11.12;6.97;;;;;;;2.78;59.48;98877.84;7776583;32;37121;-84
2024/01/07 19:56:44;;;;;;;12.52;7.65;;;;;;;2.52;60.06;98880.09;7765708;32;39990;-85
2024/01/07 20:01:01;;;;;;;13.18;8.10;;;;;;;2.80;59.49;98884.59;7782948;32;39723;-72
2024/01/07 20:05:18;;;;;;;11.90;7.70;;;;;;;3.03;69.61;98884.72;7792724;32;38747;-84
2024/01/07 20:09:34;;;;;;;10.05;6.97;;;;;;;3.22;58.74;98893.38;7792732;32;37906;-84